Time;durP1;ratioP1;P1;durP2;ratioP2;P2;SDS_P1;SDS_P2;PMS_P1;PMS_P2;Temp;Humidity;BMP_temperature;BMP_pressure;BME280_temperature;BME280_humidity;BME280_pressure;Samples;Min_cycle;Max_cycle;Signal;HPM_P1;HPM_P2
2023/04/01 00:01:53;;;;;;;6.22;2.83;;;;;;;;;;5023624;28;20033;-54
2023/04/01 00:04:18;;;;;;;3.70;2.55;;;;;;;;;;5024198;28;20128;-52
2023/04/01 00:06:44;;;;;;;6.05;2.72;;;;;;;;;;5023780;28;20044;-52
2023/04/01 00:09:09;;;;;;;4.45;2.75;;;;;;;;;;5024014;28;20018;-52
2023/04/01 00:11:35;;;;;;;3.22;2.33;;;;;;;;;;5023793;28;20029;-51
2023/04/01 00:14:00;;;;;;;4.95;2.70;;;;;;;;;;5023893;28;20025;-55
2023/04/01 00:16:25;;;;;;;6.85;2.85;;;;;;;;;;5025721;28;20022;-49
2023/04/01 00:18:51;;;;;;;5.45;3.38;;;;;;;;;;5028140;28;20111;-52
2023/04/01 00:21:17;;;;;;;4.57;3.50;;;;;;;;;;5027317;28;20483;-50
2023/04/01 00:23:43;;;;;;;5.53;2.95;;;;;;;;;;5027793;28;20105;-55
2023/04/01 00:26:09;;;;;;;5.47;2.80;;;;;;;;;;5027983;28;20104;-52
2023/04/01 00:28:35;;;;;;;6.45;3.10;;;;;;;;;;5027737;28;20104;-53
2023/04/01 00:31:04;;;;;;;5.07;3.20;;;;;;;;;;5027281;28;20026;-55
2023/04/01 00:33:30;;;;;;;8.27;2.92;;;;;;;;;;5027394;28;20069;-53
2023/04/01 00:35:56;;;;;;;6.47;3.25;;;;;;;;;;5027564;28;20539;-50
2023/04/01 00:38:21;;;;;;;5.20;2.75;;;;;;;;;;5027142;28;20018;-49
2023/04/01 00:40:46;;;;;;;4.25;2.85;;;;;;;;;;5027294;28;20592;-50
2023/04/01 00:43:13;;;;;;;5.00;2.60;;;;;;;;;;5026977;28;20029;-50
2023/04/01 00:45:40;;;;;;;8.25;3.55;;;;;;;;;;5027211;28;20033;-51
2023/04/01 00:48:08;;;;;;;4.60;3.30;;;;;;;;;;5027336;28;20262;-52
2023/04/01 00:50:34;;;;;;;6.75;3.15;;;;;;;;;;5026942;28;20021;-51
2023/04/01 00:53:02;;;;;;;6.20;2.95;;;;;;;;;;5027072;28;20045;-50
2023/04/01 00:55:30;;;;;;;5.65;3.15;;;;;;;;;;5027153;28;20029;-52
2023/04/01 00:57:57;;;;;;;7.00;3.75;;;;;;;;;;5027194;28;20026;-54
2023/04/01 01:00:22;;;;;;;7.85;3.20;;;;;;;;;;5026714;28;20025;-53
2023/04/01 01:02:50;;;;;;;5.35;3.30;;;;;;;;;;5024514;28;20117;-49
2023/04/01 01:05:15;;;;;;;7.60;3.67;;;;;;;;;;5026840;28;20098;-52
2023/04/01 01:07:53;;;;;;;5.60;2.88;;;;;;;;;;5026651;28;20021;-52
2023/04/01 01:10:30;;;;;;;5.30;2.63;;;;;;;;;;5026917;28;20465;-53
2023/04/01 01:13:14;;;;;;;6.47;2.85;;;;;;;;;;5040737;28;20041;-54
2023/04/01 01:15:40;;;;;;;4.55;2.97;;;;;;;;;;5026971;28;20056;-53
2023/04/01 01:18:24;;;;;;;5.20;2.70;;;;;;;;;;5026558;28;20505;-53
2023/04/01 01:20:55;;;;;;;5.20;2.50;;;;;;;;;;5026632;28;20021;-52
2023/04/01 01:23:32;;;;;;;3.38;2.53;;;;;;;;;;5026324;28;20424;-52
2023/04/01 01:26:03;;;;;;;4.32;2.75;;;;;;;;;;5026784;28;20024;-51
2023/04/01 01:28:32;;;;;;;5.90;2.20;;;;;;;;;;5025882;28;20029;-54
2023/04/01 01:31:02;;;;;;;3.88;2.40;;;;;;;;;;5026417;28;20026;-55
2023/04/01 01:33:48;;;;;;;4.82;2.55;;;;;;;;;;5026372;28;20069;-52
2023/04/01 01:36:15;;;;;;;3.63;2.20;;;;;;;;;;5026436;28;20018;-51
2023/04/01 01:38:41;;;;;;;3.20;2.40;;;;;;;;;;5026497;28;20349;-51
2023/04/01 01:41:07;;;;;;;2.95;2.38;;;;;;;;;;5026351;28;20370;-55
2023/04/01 01:43:41;;;;;;;3.42;2.22;;;;;;;;;;5007113;28;20096;-53
2023/04/01 01:46:10;;;;;;;3.30;2.17;;;;;;;;;;5026003;28;20040;-52
2023/04/01 01:48:36;;;;;;;3.47;2.20;;;;;;;;;;5026167;28;20021;-52
2023/04/01 01:51:01;;;;;;;5.72;2.40;;;;;;;;;;5026149;28;20083;-52
2023/04/01 01:53:26;;;;;;;3.10;2.17;;;;;;;;;;5025831;28;20060;-54
2023/04/01 01:55:52;;;;;;;6.63;2.60;;;;;;;;;;5007111;28;20107;-53
2023/04/01 01:58:40;;;;;;;3.95;2.78;;;;;;;;;;5025876;28;20113;-50
2023/04/01 02:01:07;;;;;;;4.68;2.10;;;;;;;;;;5004991;28;20375;-49
2023/04/01 02:03:36;;;;;;;4.45;2.20;;;;;;;;;;5006082;28;20168;-52
2023/04/01 02:06:01;;;;;;;;;;;;;;;;;;5007042;28;20045;-53
2023/04/01 02:08:29;;;;;;;6.20;2.20;;;;;;;;;;5005952;28;19951;-54
2023/04/01 02:10:57;;;;;;;3.67;2.20;;;;;;;;;;5006116;28;20533;-53
2023/04/01 02:13:30;;;;;;;6.45;2.88;;;;;;;;;;5005740;28;20424;-54
2023/04/01 02:15:58;;;;;;;7.55;3.08;;;;;;;;;;5006112;28;20091;-52
2023/04/01 02:18:24;;;;;;;5.60;2.45;;;;;;;;;;5005549;28;20061;-54
2023/04/01 02:20:50;;;;;;;4.88;2.95;;;;;;;;;;5005826;28;20054;-52
2023/04/01 02:23:15;;;;;;;12.07;3.70;;;;;;;;;;5005666;28;20101;-52
2023/04/01 02:25:41;;;;;;;7.60;4.10;;;;;;;;;;5005642;28;20029;-52
2023/04/01 02:28:07;;;;;;;8.52;3.58;;;;;;;;;;5005833;28;20064;-51
2023/04/01 02:30:34;;;;;;;7.25;3.47;;;;;;;;;;5005691;28;20030;-51
2023/04/01 02:33:00;;;;;;;6.80;3.63;;;;;;;;;;5005343;28;20431;-53
2023/04/01 02:35:25;;;;;;;12.88;5.13;;;;;;;;;;5005817;28;20382;-52
2023/04/01 02:37:52;;;;;;;17.10;7.25;;;;;;;;;;5005299;28;20033;-50
2023/04/01 02:40:17;;;;;;;16.63;6.35;;;;;;;;;;5004981;28;20076;-50
2023/04/01 02:42:43;;;;;;;6.25;3.78;;;;;;;;;;5005287;28;20026;-53
2023/04/01 02:45:08;;;;;;;12.90;4.43;;;;;;;;;;5005316;28;20429;-54
2023/04/01 02:47:34;;;;;;;9.88;5.00;;;;;;;;;;5005287;28;20074;-50
2023/04/01 02:49:59;;;;;;;8.27;4.90;;;;;;;;;;5005701;28;20026;-51
2023/04/01 02:52:25;;;;;;;8.73;4.03;;;;;;;;;;5005745;28;20068;-49
2023/04/01 02:54:50;;;;;;;5.65;3.55;;;;;;;;;;5004997;28;20033;-52
2023/04/01 02:57:15;;;;;;;7.35;3.55;;;;;;;;;;5005065;28;20489;-48
2023/04/01 02:59:41;;;;;;;5.75;3.20;;;;;;;;;;5014694;28;20056;-50
2023/04/01 03:02:06;;;;;;;5.07;2.65;;;;;;;;;;5024224;28;20021;-52
2023/04/01 03:04:32;;;;;;;6.20;3.10;;;;;;;;;;5021792;28;20048;-52
2023/04/01 03:06:57;;;;;;;5.53;2.72;;;;;;;;;;5024664;28;20456;-51
2023/04/01 03:09:22;;;;;;;5.85;2.80;;;;;;;;;;5024439;28;20035;-52
2023/04/01 03:11:48;;;;;;;4.00;2.58;;;;;;;;;;5024582;28;20047;-52
2023/04/01 03:14:13;;;;;;;7.25;2.72;;;;;;;;;;5024877;28;20458;-50
2023/04/01 03:16:38;;;;;;;5.90;3.03;;;;;;;;;;5024193;28;20020;-51
2023/04/01 03:19:04;;;;;;;6.13;2.70;;;;;;;;;;5022077;28;20053;-54
2023/04/01 03:21:29;;;;;;;5.03;2.38;;;;;;;;;;5024217;28;20505;-51
2023/04/01 03:23:54;;;;;;;5.80;3.00;;;;;;;;;;5024248;28;20037;-52
2023/04/01 03:26:21;;;;;;;5.15;2.83;;;;;;;;;;5024452;28;20025;-51
2023/04/01 03:28:46;;;;;;;3.55;2.75;;;;;;;;;;5024438;28;20340;-53
2023/04/01 03:31:12;;;;;;;4.45;2.55;;;;;;;;;;5024224;28;20391;-52
2023/04/01 03:33:37;;;;;;;3.15;2.70;;;;;;;;;;5024149;28;20072;-52
2023/04/01 03:36:06;;;;;;;6.15;2.85;;;;;;;;;;5024156;28;20138;-50
2023/04/01 03:38:31;;;;;;;4.65;2.65;;;;;;;;;;5024085;28;20032;-52
2023/04/01 03:40:56;;;;;;;5.90;3.15;;;;;;;;;;5024431;28;20056;-53
2023/04/01 03:43:22;;;;;;;3.65;2.60;;;;;;;;;;5024360;28;20444;-53
2023/04/01 03:45:48;;;;;;;4.65;3.00;;;;;;;;;;5023986;28;20059;-51
2023/04/01 03:48:14;;;;;;;5.57;3.33;;;;;;;;;;5024684;28;20144;-51
2023/04/01 03:50:39;;;;;;;7.78;2.67;;;;;;;;;;5026505;28;20465;-55
2023/04/01 03:53:05;;;;;;;4.18;3.08;;;;;;;;;;5028308;28;20047;-50
2023/04/01 03:55:30;;;;;;;7.63;2.78;;;;;;;;;;5028362;28;20021;-51
2023/04/01 03:57:55;;;;;;;7.50;2.60;;;;;;;;;;5028126;28;20057;-53
2023/04/01 04:00:21;;;;;;;6.22;2.30;;;;;;;;;;5008575;28;20116;-55
2023/04/01 04:02:46;;;;;;;5.57;2.72;;;;;;;;;;5027952;28;20439;-53
2023/04/01 04:05:13;;;;;;;4.07;2.35;;;;;;;;;;5027845;28;20473;-54
2023/04/01 04:07:38;;;;;;;4.53;2.33;;;;;;;;;;5028107;28;20560;-54
2023/04/01 04:10:04;;;;;;;4.68;3.03;;;;;;;;;;5028201;28;20112;-49
2023/04/01 04:12:29;;;;;;;7.85;2.83;;;;;;;;;;5027880;28;20029;-50
2023/04/01 04:14:54;;;;;;;8.40;3.25;;;;;;;;;;5026454;28;20079;-55
2023/04/01 04:17:20;;;;;;;4.65;2.58;;;;;;;;;;5008767;28;20049;-54
2023/04/01 04:19:45;;;;;;;4.82;2.90;;;;;;;;;;5027838;28;20028;-53
2023/04/01 04:22:10;;;;;;;3.58;2.38;;;;;;;;;;5028016;28;20025;-51
2023/04/01 04:24:36;;;;;;;3.08;2.40;;;;;;;;;;5025210;28;20045;-55
2023/04/01 04:27:01;;;;;;;4.57;2.55;;;;;;;;;;5027582;28;20483;-55
2023/04/01 04:29:26;;;;;;;3.38;2.28;;;;;;;;;;5027693;28;20450;-53
2023/04/01 04:31:52;;;;;;;4.53;2.50;;;;;;;;;;5024678;28;20389;-52
2023/04/01 04:34:18;;;;;;;5.30;2.83;;;;;;;;;;5027367;28;20057;-52
2023/04/01 04:36:43;;;;;;;4.65;2.83;;;;;;;;;;5027458;28;20485;-52
2023/04/01 04:39:09;;;;;;;9.50;2.63;;;;;;;;;;5027467;28;20025;-52
2023/04/01 04:41:36;;;;;;;6.57;2.67;;;;;;;;;;5027540;28;20080;-53
2023/04/01 04:44:02;;;;;;;3.20;2.40;;;;;;;;;;5027255;28;20124;-55
2023/04/01 04:46:27;;;;;;;4.30;2.60;;;;;;;;;;5027461;28;20096;-51
2023/04/01 04:48:52;;;;;;;3.45;2.38;;;;;;;;;;5027300;28;20041;-54
2023/04/01 04:51:18;;;;;;;5.80;2.85;;;;;;;;;;5027218;28;20520;-50
2023/04/01 04:53:44;;;;;;;5.13;2.97;;;;;;;;;;5027177;28;20362;-53
2023/04/01 04:56:09;;;;;;;5.18;3.03;;;;;;;;;;5027296;28;20293;-50
2023/04/01 04:58:35;;;;;;;4.80;3.20;;;;;;;;;;5027031;28;20132;-55
2023/04/01 05:01:10;;;;;;;7.32;3.40;;;;;;;;;;5026432;28;20025;-53
2023/04/01 05:03:36;;;;;;;10.63;4.88;;;;;;;;;;5026795;28;20432;-54
2023/04/01 05:06:01;;;;;;;8.98;3.95;;;;;;;;;;5040952;28;20030;-54
2023/04/01 05:08:27;;;;;;;5.50;3.80;;;;;;;;;;5026807;28;20585;-52
2023/04/01 05:10:52;;;;;;;5.00;3.40;;;;;;;;;;5026738;28;20446;-51
2023/04/01 05:13:17;;;;;;;4.80;3.03;;;;;;;;;;5025666;28;20029;-53
2023/04/01 05:15:43;;;;;;;4.78;3.70;;;;;;;;;;5026559;28;20483;-51
2023/04/01 05:18:08;;;;;;;8.10;3.55;;;;;;;;;;5027049;28;20461;-54
2023/04/01 05:20:33;;;;;;;8.27;3.50;;;;;;;;;;5025382;28;20032;-52
2023/04/01 05:22:59;;;;;;;7.72;3.80;;;;;;;;;;5026174;28;20044;-54
2023/04/01 05:25:25;;;;;;;6.25;3.33;;;;;;;;;;5026230;28;20025;-54
2023/04/01 05:27:50;;;;;;;6.07;3.47;;;;;;;;;;5026320;28;20021;-54
2023/04/01 05:30:15;;;;;;;6.32;3.25;;;;;;;;;;5026484;28;20021;-52
2023/04/01 05:32:41;;;;;;;5.20;2.97;;;;;;;;;;5026027;28;20033;-55
2023/04/01 05:35:06;;;;;;;6.03;2.63;;;;;;;;;;5026510;28;20410;-50
2023/04/01 05:37:33;;;;;;;6.35;3.10;;;;;;;;;;5025976;28;20032;-52
2023/04/01 05:39:58;;;;;;;5.85;3.70;;;;;;;;;;5026322;28;20112;-54
2023/04/01 05:42:24;;;;;;;7.45;4.40;;;;;;;;;;5026310;28;20156;-53
2023/04/01 05:44:49;;;;;;;9.77;5.18;;;;;;;;;;5025951;28;20067;-52
2023/04/01 05:47:14;;;;;;;10.18;5.45;;;;;;;;;;5026198;28;20022;-50
2023/04/01 05:49:40;;;;;;;10.80;6.40;;;;;;;;;;5026107;28;20130;-50
2023/04/01 05:52:05;;;;;;;11.40;5.55;;;;;;;;;;5026121;28;20025;-55
2023/04/01 05:54:30;;;;;;;12.18;6.80;;;;;;;;;;5026016;28;20025;-52
2023/04/01 05:56:55;;;;;;;11.18;5.95;;;;;;;;;;5026127;28;20542;-50
2023/04/01 05:59:21;;;;;;;9.07;5.47;;;;;;;;;;5025889;28;20029;-55
2023/04/01 06:01:46;;;;;;;10.82;6.10;;;;;;;;;;5025904;28;20025;-53
2023/04/01 06:04:15;;;;;;;13.00;5.95;;;;;;;;;;5026079;28;20099;-53
2023/04/01 06:06:41;;;;;;;11.13;5.88;;;;;;;;;;5025887;28;20463;-52
2023/04/01 06:09:19;;;;;;;14.95;5.82;;;;;;;;;;5025365;28;20029;-52
2023/04/01 06:12:03;;;;;;;11.85;5.82;;;;;;;;;;5025484;28;20034;-53
2023/04/01 06:14:37;;;;;;;11.10;6.10;;;;;;;;;;5024412;28;20159;-52
2023/04/01 06:17:02;;;;;;;10.88;5.72;;;;;;;;;;5025726;28;20351;-50
2023/04/01 06:19:46;;;;;;;12.57;5.70;;;;;;;;;;5025707;28;20032;-53
2023/04/01 06:22:26;;;;;;;9.32;5.63;;;;;;;;;;5025273;28;20032;-49
2023/04/01 06:24:59;;;;;;;10.70;4.68;;;;;;;;;;5025350;28;20068;-50
2023/04/01 06:27:30;;;;;;;10.63;4.95;;;;;;;;;;5025913;28;20474;-52
2023/04/01 06:29:58;;;;;;;5.90;3.65;;;;;;;;;;5025457;28;20025;-52
2023/04/01 06:32:42;;;;;;;12.15;3.80;;;;;;;;;;5024930;28;20053;-54
2023/04/01 06:35:16;;;;;;;6.60;3.50;;;;;;;;;;5025257;28;20072;-53
2023/04/01 06:37:44;;;;;;;11.55;3.53;;;;;;;;;;5025293;28;20116;-53
2023/04/01 06:40:28;;;;;;;8.88;3.88;;;;;;;;;;5025382;28;20893;-51
2023/04/01 06:43:14;;;;;;;7.72;3.60;;;;;;;;;;5025289;28;20026;-51
2023/04/01 06:45:55;;;;;;;7.47;3.53;;;;;;;;;;5024863;28;20112;-54
2023/04/01 06:48:32;;;;;;;6.45;3.42;;;;;;;;;;5024816;28;20127;-54
2023/04/01 06:51:01;;;;;;;5.13;2.80;;;;;;;;;;5025299;28;20466;-56
2023/04/01 06:53:42;;;;;;;8.98;3.30;;;;;;;;;;5024765;28;20517;-50
2023/04/01 06:56:12;;;;;;;5.20;2.83;;;;;;;;;;5025279;28;20017;-55
2023/04/01 06:58:40;;;;;;;7.53;2.50;;;;;;;;;;5038851;28;20053;-55
2023/04/01 07:01:09;;;;;;;7.43;3.45;;;;;;;;;;5024749;28;20029;-54
2023/04/01 07:04:04;;;;;;;7.22;2.28;;;;;;;;;;5023320;28;20025;-56
2023/04/01 07:06:36;;;;;;;3.92;2.25;;;;;;;;;;4982740;28;20027;-52
2023/04/01 07:09:04;;;;;;;5.30;2.33;;;;;;;;;;4982871;28;20039;-52
2023/04/01 07:11:31;;;;;;;5.68;3.08;;;;;;;;;;4982419;28;20049;-52
2023/04/01 07:14:19;;;;;;;4.63;2.13;;;;;;;;;;4982193;28;20445;-54
2023/04/01 07:16:53;;;;;;;4.15;2.55;;;;;;;;;;4981879;28;20027;-54
2023/04/01 07:19:25;;;;;;;6.47;2.70;;;;;;;;;;4982015;28;20092;-54
2023/04/01 07:21:56;;;;;;;8.90;2.45;;;;;;;;;;4981670;28;20481;-53
2023/04/01 07:24:25;;;;;;;3.72;2.10;;;;;;;;;;4982038;28;20046;-51
2023/04/01 07:26:53;;;;;;;5.38;2.42;;;;;;;;;;4982012;28;20462;-54
2023/04/01 07:29:18;;;;;;;4.53;2.80;;;;;;;;;;4982511;28;20415;-53
2023/04/01 07:31:43;;;;;;;10.57;2.95;;;;;;;;;;4982697;28;20019;-51
2023/04/01 07:34:12;;;;;;;6.30;2.53;;;;;;;;;;4982217;28;20638;-52
2023/04/01 07:36:50;;;;;;;7.20;2.92;;;;;;;;;;4982584;28;20051;-56
2023/04/01 07:39:15;;;;;;;5.88;2.80;;;;;;;;;;4949474;28;20046;-55
2023/04/01 07:41:46;;;;;;;5.18;2.40;;;;;;;;;;4982063;28;20026;-53
2023/04/01 07:44:18;;;;;;;5.07;2.25;;;;;;;;;;5024538;28;20060;-49
2023/04/01 07:46:44;;;;;;;5.40;2.22;;;;;;;;;;5024482;28;20412;-54
2023/04/01 07:49:12;;;;;;;4.80;1.77;;;;;;;;;;5024589;28;20032;-56
2023/04/01 07:51:40;;;;;;;3.23;1.70;;;;;;;;;;5024452;28;20021;-53
2023/04/01 07:54:17;;;;;;;3.80;1.40;;;;;;;;;;5024059;28;20555;-48
2023/04/01 07:56:55;;;;;;;3.55;1.45;;;;;;;;;;5024380;28;20045;-52
2023/04/01 07:59:52;;;;;;;3.58;1.65;;;;;;;;;;5024129;28;20052;-52
2023/04/01 08:02:20;;;;;;;4.10;1.35;;;;;;;;;;4962810;28;20479;-54
2023/04/01 08:04:51;;;;;;;3.42;1.77;;;;;;;;;;4962508;28;20511;-54
2023/04/01 08:07:46;;;;;;;6.32;1.67;;;;;;;;;;4962844;28;20034;-55
2023/04/01 08:10:17;;;;;;;3.08;1.30;;;;;;;;;;4924472;29;20090;-54
2023/04/01 08:13:05;;;;;;;2.53;1.33;;;;;;;;;;4923797;29;20028;-55
2023/04/01 08:15:30;;;;;;;2.22;1.40;;;;;;;;;;4924090;29;20043;-52
2023/04/01 08:18:03;;;;;;;3.20;1.40;;;;;;;;;;4924154;29;20087;-52
2023/04/01 08:20:45;;;;;;;6.40;1.50;;;;;;;;;;4924077;29;20066;-54
2023/04/01 08:23:10;;;;;;;2.65;1.33;;;;;;;;;;4923893;29;20508;-53
2023/04/01 08:25:38;;;;;;;6.75;2.13;;;;;;;;;;4923799;29;20170;-54
2023/04/01 08:28:09;;;;;;;8.00;1.95;;;;;;;;;;4923983;29;20165;-53
2023/04/01 08:30:48;;;;;;;3.88;2.03;;;;;;;;;;4923972;29;20034;-51
2023/04/01 08:33:16;;;;;;;3.63;1.70;;;;;;;;;;4923815;29;20055;-52
2023/04/01 08:35:51;;;;;;;5.32;1.63;;;;;;;;;;4923789;29;20460;-54
2023/04/01 08:38:40;;;;;;;2.75;1.70;;;;;;;;;;4951313;28;20056;-53
2023/04/01 08:41:05;;;;;;;7.13;2.20;;;;;;;;;;4965769;28;20468;-50
2023/04/01 08:43:51;;;;;;;4.63;2.13;;;;;;;;;;4965892;28;20023;-51
2023/04/01 08:46:34;;;;;;;7.32;2.58;;;;;;;;;;4979848;28;20040;-52
2023/04/01 08:49:18;;;;;;;4.13;2.50;;;;;;;;;;5007950;28;20049;-52
2023/04/01 08:51:43;;;;;;;6.75;2.80;;;;;;;;;;5007710;28;20524;-52
2023/04/01 08:54:08;;;;;;;5.55;2.10;;;;;;;;;;5007506;28;20030;-54
2023/04/01 08:56:42;;;;;;;4.50;2.00;;;;;;;;;;5005180;28;20113;-53
2023/04/01 08:59:07;;;;;;;4.45;1.67;;;;;;;;;;5007303;28;20141;-53
2023/04/01 09:01:36;;;;;;;3.75;1.60;;;;;;;;;;5023671;28;20116;-50
2023/04/01 09:04:11;;;;;;;4.35;2.00;;;;;;;;;;5026992;28;20528;-54
2023/04/01 09:06:51;;;;;;;3.53;1.70;;;;;;;;;;5027037;28;20068;-55
2023/04/01 09:09:36;;;;;;;3.60;1.60;;;;;;;;;;5026821;28;20389;-54
2023/04/01 09:12:21;;;;;;;4.55;1.63;;;;;;;;;;5026960;28;20381;-55
2023/04/01 09:15:05;;;;;;;3.92;1.60;;;;;;;;;;5025278;28;20036;-54
2023/04/01 09:17:48;;;;;;;2.65;1.65;;;;;;;;;;5026543;28;20024;-54
2023/04/01 09:20:18;;;;;;;3.13;1.95;;;;;;;;;;5026290;28;20057;-53
2023/04/01 09:22:56;;;;;;;3.92;1.80;;;;;;;;;;5026586;28;20384;-57
2023/04/01 09:25:25;;;;;;;8.18;2.40;;;;;;;;;;5026432;28;20025;-50
2023/04/01 09:27:56;;;;;;;5.78;2.47;;;;;;;;;;5026389;28;20026;-57
2023/04/01 09:30:27;;;;;;;3.25;1.90;;;;;;;;;;5026426;28;20120;-55
2023/04/01 09:32:52;;;;;;;4.38;2.00;;;;;;;;;;5025991;28;20045;-57
2023/04/01 09:35:22;;;;;;;3.70;1.60;;;;;;;;;;5026239;28;20086;-54
2023/04/01 09:37:48;;;;;;;4.22;1.63;;;;;;;;;;5026586;28;20661;-50
2023/04/01 09:40:22;;;;;;;2.80;1.77;;;;;;;;;;5026216;28;20241;-54
2023/04/01 09:43:00;;;;;;;6.45;2.10;;;;;;;;;;5026280;28;20025;-52
2023/04/01 09:45:50;;;;;;;4.78;1.83;;;;;;;;;;5026214;28;20112;-55
2023/04/01 09:48:22;;;;;;;7.40;2.30;;;;;;;;;;5026137;28;20033;-54
2023/04/01 09:50:50;;;;;;;6.20;1.88;;;;;;;;;;5026175;28;20065;-56
2023/04/01 09:53:28;;;;;;;3.67;1.70;;;;;;;;;;5026212;28;20049;-56
2023/04/01 09:56:18;;;;;;;2.67;1.38;;;;;;;;;;5026173;28;20053;-54
2023/04/01 09:59:02;;;;;;;5.18;2.08;;;;;;;;;;5024836;28;20017;-57
2023/04/01 10:01:40;;;;;;;4.68;2.03;;;;;;;;;;5026088;28;20266;-55
2023/04/01 10:04:11;;;;;;;4.50;1.67;;;;;;;;;;5026069;28;20021;-55
2023/04/01 10:06:40;;;;;;;3.88;2.13;;;;;;;;;;5026525;28;20064;-56
2023/04/01 10:09:05;;;;;;;7.93;2.20;;;;;;;;;;5025918;28;20041;-56
2023/04/01 10:11:50;;;;;;;6.90;1.42;;;;;;;;;;5025694;28;20025;-56
2023/04/01 10:14:31;;;;;;;3.15;1.73;;;;;;;;;;5025879;28;20471;-54
2023/04/01 10:17:16;;;;;;;5.38;1.40;;;;;;;;;;5025398;28;20083;-53
2023/04/01 10:19:41;;;;;;;3.47;1.88;;;;;;;;;;4983107;28;20644;-55
2023/04/01 10:22:22;;;;;;;2.60;1.50;;;;;;;;;;4983492;28;20686;-54
2023/04/01 10:24:59;;;;;;;4.30;1.70;;;;;;;;;;4983019;28;20042;-55
2023/04/01 10:27:33;;;;;;;3.35;1.63;;;;;;;;;;4983240;28;20034;-55
2023/04/01 10:30:21;;;;;;;5.78;1.88;;;;;;;;;;4982766;28;20026;-55
2023/04/01 10:32:53;;;;;;;1.70;1.33;;;;;;;;;;4982920;28;20263;-53
2023/04/01 10:35:18;;;;;;;4.35;1.80;;;;;;;;;;4982916;28;20046;-58
2023/04/01 10:37:46;;;;;;;2.77;1.67;;;;;;;;;;4982957;28;20441;-52
2023/04/01 10:40:22;;;;;;;5.10;1.60;;;;;;;;;;4983423;28;20256;-56
2023/04/01 10:43:06;;;;;;;3.65;1.35;;;;;;;;;;4982931;28;20586;-55
2023/04/01 10:45:49;;;;;;;5.47;1.52;;;;;;;;;;4982721;28;20102;-56
2023/04/01 10:48:33;;;;;;;4.47;1.73;;;;;;;;;;4982732;28;20037;-55
2023/04/01 10:51:09;;;;;;;3.55;1.30;;;;;;;;;;4982265;28;20061;-56
2023/04/01 10:53:40;;;;;;;2.65;1.33;;;;;;;;;;4950038;28;20049;-56
2023/04/01 10:56:25;;;;;;;2.95;1.40;;;;;;;;;;4990412;28;20044;-56
2023/04/01 10:59:16;;;;;;;1.77;0.98;;;;;;;;;;5024764;28;20018;-53
2023/04/01 11:01:54;;;;;;;4.80;1.30;;;;;;;;;;4982315;28;20038;-56
2023/04/01 11:04:44;;;;;;;2.80;0.98;;;;;;;;;;4982541;28;20097;-57
2023/04/01 11:07:10;;;;;;;;;;;;;;;;;;4950183;28;20103;-56
2023/04/01 11:09:36;;;;;;;2.88;1.50;;;;;;;;;;4982458;28;20354;-53
2023/04/01 11:12:04;;;;;;;3.28;1.40;;;;;;;;;;4982428;28;20058;-56
2023/04/01 11:14:42;;;;;;;2.60;1.00;;;;;;;;;;4981937;28;20027;-55
2023/04/01 11:17:08;;;;;;;2.78;1.38;;;;;;;;;;4982220;28;20030;-54
2023/04/01 11:19:46;;;;;;;3.17;1.30;;;;;;;;;;4982335;28;20038;-56
2023/04/01 11:22:14;;;;;;;6.18;1.20;;;;;;;;;;4981798;28;20026;-55
2023/04/01 11:24:58;;;;;;;2.35;1.00;;;;;;;;;;4981892;28;20034;-56
2023/04/01 11:27:38;;;;;;;4.50;1.20;;;;;;;;;;4982400;28;20037;-57
2023/04/01 11:30:12;;;;;;;4.65;1.45;;;;;;;;;;4982607;28;20042;-57
2023/04/01 11:32:52;;;;;;;2.75;1.20;;;;;;;;;;4981619;28;20040;-54
2023/04/01 11:35:39;;;;;;;1.95;1.30;;;;;;;;;;4982492;28;20045;-57
2023/04/01 11:38:14;;;;;;;1.40;0.95;;;;;;;;;;4995201;28;20041;-52
2023/04/01 11:40:54;;;;;;;2.20;0.98;;;;;;;;;;5024713;28;20485;-57
2023/04/01 11:43:19;;;;;;;;;;;;;;;;;;5024601;28;20033;-52
2023/04/01 11:46:03;;;;;;;1.87;1.00;;;;;;;;;;5024475;28;20376;-56
2023/04/01 11:48:36;;;;;;;3.30;1.20;;;;;;;;;;5024322;28;20251;-53
2023/04/01 11:51:08;;;;;;;5.63;1.27;;;;;;;;;;5024192;28;20037;-55
2023/04/01 11:53:52;;;;;;;2.58;1.25;;;;;;;;;;5024042;28;20412;-55
2023/04/01 11:56:20;;;;;;;2.90;1.35;;;;;;;;;;5024216;28;20029;-55
2023/04/01 11:58:48;;;;;;;4.88;1.38;;;;;;;;;;5024355;28;20711;-57
2023/04/01 12:01:25;;;;;;;5.18;1.27;;;;;;;;;;5023935;28;20026;-56
2023/04/01 12:04:08;;;;;;;3.50;0.80;;;;;;;;;;5023846;28;20029;-56
2023/04/01 12:06:49;;;;;;;3.90;1.35;;;;;;;;;;5023760;28;20036;-53
2023/04/01 12:09:33;;;;;;;3.47;1.02;;;;;;;;;;5024139;28;20021;-56
2023/04/01 12:12:01;;;;;;;3.55;1.10;;;;;;;;;;5026842;28;20033;-56
2023/04/01 12:14:26;;;;;;;5.47;1.33;;;;;;;;;;5027675;28;20080;-55
2023/04/01 12:17:09;;;;;;;2.97;0.90;;;;;;;;;;5027470;28;20021;-53
2023/04/01 12:19:37;;;;;;;5.25;1.00;;;;;;;;;;5027518;28;20405;-55
2023/04/01 12:22:29;;;;;;;1.17;0.63;;;;;;;;;;5041523;28;20029;-53
2023/04/01 12:24:59;;;;;;;3.33;0.95;;;;;;;;;;5025246;28;20274;-54
2023/04/01 12:27:43;;;;;;;3.42;1.23;;;;;;;;;;5027748;28;20029;-54
2023/04/01 12:30:27;;;;;;;3.72;1.33;;;;;;;;;;5027304;28;20404;-56
2023/04/01 12:33:19;;;;;;;4.18;1.20;;;;;;;;;;5027201;28;20046;-53
2023/04/01 12:35:50;;;;;;;3.17;1.38;;;;;;;;;;4985343;28;20553;-54
2023/04/01 12:38:21;;;;;;;3.60;0.80;;;;;;;;;;4984966;28;20034;-54
2023/04/01 12:41:01;;;;;;;3.65;1.00;;;;;;;;;;4985076;28;20074;-53
2023/04/01 12:43:32;;;;;;;4.05;1.30;;;;;;;;;;4985104;28;20033;-53
2023/04/01 12:46:20;;;;;;;2.90;1.17;;;;;;;;;;4985142;28;20530;-48
2023/04/01 12:49:05;;;;;;;2.88;1.25;;;;;;;;;;4984899;28;20105;-54
2023/04/01 12:51:31;;;;;;;3.40;1.73;;;;;;;;;;4984876;28;20033;-55
2023/04/01 12:54:05;;;;;;;6.70;1.07;;;;;;;;;;4984822;28;20039;-54
2023/04/01 12:56:44;;;;;;;4.30;1.42;;;;;;;;;;4985063;28;20367;-55
2023/04/01 12:59:12;;;;;;;4.68;1.50;;;;;;;;;;4984628;28;20467;-53
2023/04/01 13:01:49;;;;;;;2.03;1.27;;;;;;;;;;4984461;28;20026;-53
2023/04/01 13:04:23;;;;;;;5.60;1.02;;;;;;;;;;4984351;28;20034;-56
2023/04/01 13:07:06;;;;;;;3.17;0.93;;;;;;;;;;4984678;28;20034;-55
2023/04/01 13:09:40;;;;;;;3.05;1.17;;;;;;;;;;4984946;28;20049;-53
2023/04/01 13:12:21;;;;;;;4.00;1.10;;;;;;;;;;4996911;28;20074;-52
2023/04/01 13:14:49;;;;;;;4.63;1.90;;;;;;;;;;5026635;28;20033;-57
2023/04/01 13:17:29;;;;;;;6.60;1.30;;;;;;;;;;5026362;28;20454;-55
2023/04/01 13:20:10;;;;;;;4.43;1.48;;;;;;;;;;5026388;28;20029;-56
2023/04/01 13:22:50;;;;;;;7.80;2.15;;;;;;;;;;5025658;28;20489;-53
2023/04/01 13:25:19;;;;;;;4.72;1.52;;;;;;;;;;5026589;28;20069;-53
2023/04/01 13:27:45;;;;;;;2.58;1.20;;;;;;;;;;5026262;28;20057;-55
2023/04/01 13:30:20;;;;;;;2.80;1.08;;;;;;;;;;5026697;28;20460;-56
2023/04/01 13:32:58;;;;;;;3.15;1.10;;;;;;;;;;5026209;28;20054;-52
2023/04/01 13:35:34;;;;;;;8.18;2.35;;;;;;;;;;5025990;28;20029;-52
2023/04/01 13:38:18;;;;;;;6.00;1.48;;;;;;;;;;5026287;28;20025;-53
2023/04/01 13:40:49;;;;;;;4.15;1.02;;;;;;;;;;5026515;28;20025;-52
2023/04/01 13:43:17;;;;;;;3.05;1.27;;;;;;;;;;5026008;28;20032;-53
2023/04/01 13:46:01;;;;;;;3.57;1.13;;;;;;;;;;5026365;28;20121;-51
2023/04/01 13:48:45;;;;;;;4.70;1.23;;;;;;;;;;5026266;28;20075;-55
2023/04/01 13:51:29;;;;;;;5.28;1.48;;;;;;;;;;5026167;28;20527;-56
2023/04/01 13:54:12;;;;;;;3.85;1.13;;;;;;;;;;5025775;28;20026;-52
2023/04/01 13:56:38;;;;;;;3.88;1.13;;;;;;;;;;5040257;28;20036;-51
2023/04/01 13:59:06;;;;;;;7.77;2.47;;;;;;;;;;5025762;28;20025;-51
2023/04/01 14:01:57;;;;;;;3.67;1.13;;;;;;;;;;5025556;28;20258;-51
2023/04/01 14:04:41;;;;;;;3.58;1.13;;;;;;;;;;4983911;28;20276;-56
2023/04/01 14:07:21;;;;;;;4.93;1.92;;;;;;;;;;4983593;28;20080;-55
2023/04/01 14:09:49;;;;;;;5.18;1.77;;;;;;;;;;4983639;28;20355;-56
2023/04/01 14:12:27;;;;;;;5.65;1.33;;;;;;;;;;4966779;28;20521;-54
2023/04/01 14:14:55;;;;;;;4.85;1.23;;;;;;;;;;4983413;28;20034;-56
2023/04/01 14:17:37;;;;;;;5.50;1.38;;;;;;;;;;4983430;28;20022;-54
2023/04/01 14:20:17;;;;;;;6.90;1.00;;;;;;;;;;4983366;28;20395;-53
2023/04/01 14:23:01;;;;;;;5.22;2.28;;;;;;;;;;4983018;28;20041;-54
2023/04/01 14:25:45;;;;;;;9.73;2.53;;;;;;;;;;4983092;28;20065;-55
2023/04/01 14:28:16;;;;;;;6.05;3.08;;;;;;;;;;4983642;28;20038;-55
2023/04/01 14:30:42;;;;;;;3.15;1.00;;;;;;;;;;4983669;28;20262;-56
2023/04/01 14:33:23;;;;;;;5.00;1.20;;;;;;;;;;4983423;28;20760;-54
2023/04/01 14:35:53;;;;;;;5.47;2.00;;;;;;;;;;4982263;28;20042;-56
2023/04/01 14:38:37;;;;;;;3.78;2.03;;;;;;;;;;4983174;28;20031;-56
2023/04/01 14:41:12;;;;;;;3.05;1.77;;;;;;;;;;5000670;28;20033;-57
2023/04/01 14:43:48;;;;;;;8.18;2.47;;;;;;;;;;5025026;28;20026;-52
2023/04/01 14:46:30;;;;;;;2.33;1.00;;;;;;;;;;5025133;28;20029;-53
2023/04/01 14:48:58;;;;;;;4.40;1.52;;;;;;;;;;5024963;28;20374;-54
2023/04/01 14:51:38;;;;;;;4.43;1.20;;;;;;;;;;5025120;28;20029;-51
2023/04/01 14:54:03;;;;;;;1.60;1.05;;;;;;;;;;5025023;28;20432;-53
2023/04/01 14:56:41;;;;;;;4.13;1.25;;;;;;;;;;5024677;28;20025;-53
2023/04/01 14:59:08;;;;;;;1.90;1.02;;;;;;;;;;5024873;28;20116;-56
2023/04/01 15:01:50;;;;;;;3.47;1.35;;;;;;;;;;5025013;28;20045;-54
2023/04/01 15:04:24;;;;;;;6.68;1.80;;;;;;;;;;5024634;28;20021;-55
2023/04/01 15:06:56;;;;;;;10.43;3.55;;;;;;;;;;5024753;28;20040;-51
2023/04/01 15:09:30;;;;;;;3.58;1.20;;;;;;;;;;5024485;28;20025;-53
2023/04/01 15:12:08;;;;;;;7.80;1.88;;;;;;;;;;5024731;28;20053;-56